1981 FLORINE (1981003S11059)


On this page: IBTrACS data - Map and Plots - Positions - Intensities - Original source data

Summary

Start Jan 3
End Jan 11
Basin SI
LMI 105 kt
Sources jtwc_sh
reunion
td9636
neumann
In WMO? Yes
Previous storm 1981 07S (SI)
Previous in basin 1981 07S (SI)
Concurrent storms 1981 FLORINE (SI)
1981 ARTHUR (SP)
Next in basin 1981 MABEL (SI)
Next storm 1981 ARTHUR (SP)

top of page IBTrACS Data: File Access

top of page HURSAT Data: File Access

No storm imagery available

top of page Plots:

Map of storm track will not appear if FTP is down
Time series of cyclone Maximum Sustained Wind will not appear if FTP is down
Time series of cyclone Minimum Central Pressure will not appear if FTP is down

top of page Track Data:Position

jtwc_sh reunion td9636 neumann
Date Lat Lon Lat Lon Lat Lon Lat Lon
1981-01-03 06:00:00 -11.2 59.0
1981-01-03 12:00:00 -10.7 59.3
1981-01-03 18:00:00 -11.1 59.7
1981-01-04 00:00:00 -10.6 60.2 -11.9 60.2 -10.6 60.2 -10.6 60.2
1981-01-04 06:00:00 -10.6 60.0 -11.5 60.9 -10.7 60.0 -10.6 60.0
1981-01-04 12:00:00 -11.0 60.2 -11.2 60.5 -11.0 60.2 -11.0 60.2
1981-01-04 18:00:00 -11.7 60.9 -12.0 61.1 -11.6 60.9 -11.7 60.9
1981-01-05 00:00:00 -12.5 61.5 -12.9 61.6 -12.5 61.5 -12.5 61.5
1981-01-05 06:00:00 -13.5 61.6 -13.9 61.1 -13.5 61.6 -13.5 61.6
1981-01-05 12:00:00 -14.5 61.2 -14.4 60.9 -14.5 61.2 -14.5 61.2
1981-01-05 18:00:00 -15.3 60.5 -15.0 60.2 -15.3 60.5 -15.3 60.5
1981-01-06 00:00:00 -16.1 59.7 -15.9 59.7 -16.1 59.7 -16.1 59.7
1981-01-06 06:00:00 -16.8 58.9 -16.7 59.0 -16.8 58.9 -16.8 58.9
1981-01-06 12:00:00 -17.5 58.1 -17.4 58.4 -17.5 58.1 -17.5 58.1
1981-01-06 18:00:00 -18.3 57.3 -18.0 57.9 -18.4 57.2 -18.3 57.3
1981-01-07 00:00:00 -19.2 56.5 -19.0 57.0 -19.2 56.5 -19.2 56.5
1981-01-07 06:00:00 -19.9 56.1 -20.0 56.3 -19.9 56.1 -19.9 56.1
1981-01-07 12:00:00 -20.6 56.0 -21.0 56.2 -20.6 56.0 -20.6 56.0
1981-01-07 18:00:00 -21.5 56.0 -22.0 55.8 -21.5 56.0 -21.5 56.0
1981-01-08 00:00:00 -22.4 56.2 -23.0 55.8 -22.4 56.2 -22.4 56.2
1981-01-08 06:00:00 -23.2 56.8 -24.0 56.2 -23.2 56.8 -23.2 56.8
1981-01-08 12:00:00 -24.0 57.4 -24.9 57.0 -24.0 57.4 -24.0 57.4
1981-01-08 18:00:00 -24.8 57.7 -25.7 57.5 -24.9 57.7 -24.8 57.7
1981-01-09 00:00:00 -25.7 57.9 -26.8 58.0 -25.7 57.9 -25.7 57.9
1981-01-09 06:00:00 -26.5 57.9 -27.7 58.3 -26.4 57.9 -26.5 57.9
jtwc_sh reunion td9636 neumann
1981-01-09 12:00:00 -27.3 57.9 -28.6 58.7 -27.3 57.9 -27.3 57.9
1981-01-09 18:00:00 -28.4 58.0 -29.3 58.8 -28.5 57.9 -28.4 58.0
1981-01-10 00:00:00 -29.9 58.4 -30.1 58.9 -29.9 58.4 -29.9 58.4
1981-01-10 06:00:00 -31.4 59.5 -31.0 59.0 -31.5 59.6 -31.4 59.5
1981-01-10 12:00:00 -33.1 61.3 -32.1 60.2 -33.1 61.3 -33.1 61.3
1981-01-10 18:00:00 -35.0 62.7
1981-01-11 00:00:00 -36.7 66.5
1981-01-11 06:00:00 -37.6 70.4

top of pageTrack Data:Intensity

jtwc_sh reunion td9636 neumann
Date Wind Pres Wind Pres Wind Pres Wind Pres
1981-01-03 06:00:00
1981-01-03 12:00:00
1981-01-03 18:00:00
1981-01-04 00:00:00 25. 25. 25.
1981-01-04 06:00:00 25. 25. 25.
1981-01-04 12:00:00 25. 25. 25.
1981-01-04 18:00:00 25. 25. 25.
1981-01-05 00:00:00 30. 30. 30.
1981-01-05 06:00:00 35. 30. 35.
1981-01-05 12:00:00 40. 40. 40.
1981-01-05 18:00:00 45. 40. 45.
1981-01-06 00:00:00 55. 55. 55.
1981-01-06 06:00:00 65. 55. 65.
1981-01-06 12:00:00 80. 80. 80.
1981-01-06 18:00:00 90. 80. 90.
1981-01-07 00:00:00 100. 100. 100.
1981-01-07 06:00:00 105. 100. 105.
1981-01-07 12:00:00 100. 100. 100.
1981-01-07 18:00:00 90. 100. 90.
1981-01-08 00:00:00 80. 80. 80.
1981-01-08 06:00:00 80. 80. 80.
1981-01-08 12:00:00 75. 75. 75.
1981-01-08 18:00:00 65. 75. 65.
1981-01-09 00:00:00 60. 60. 60.
1981-01-09 06:00:00 60. 60. 60.
jtwc_sh reunion td9636 neumann
1981-01-09 12:00:00 55. 55. 55.
1981-01-09 18:00:00 50. 55. 50.
1981-01-10 00:00:00 45. 45. 45.
1981-01-10 06:00:00 40. 45. 40.
1981-01-10 12:00:00 30. 30. 30.
1981-01-10 18:00:00
1981-01-11 00:00:00
1981-01-11 06:00:00

top of page Links to source data

Source Source file Format
jtwc_sh bsh081981.txt ATCF
reunion WMO-Best-Tracks.txt:Line=11928:florine WMO (old format)
td9636 cons_worldwide_trop_cyclone_18710101-19891231-005:Line=12011 TD 9636
neumann tracks.sh:Storm=600:FLORINE:BSH0781:JTWC HURDAT